Time;durP1;ratioP1;P1;durP2;ratioP2;P2;SDS_P1;SDS_P2;PMS_P1;PMS_P2;Temp;Humidity;BMP_temperature;BMP_pressure;BME280_temperature;BME280_humidity;BME280_pressure;Samples;Min_cycle;Max_cycle;Signal;HPM_P1;HPM_P2
2023/01/03 00:01:35;;;;;;;70.83;24.70;;;10.80;99.40;;;;;;5044123;28;20264;-65
2023/01/03 00:04:03;;;;;;;93.70;24.90;;;10.80;99.40;;;;;;5036547;28;20230;-65
2023/01/03 00:06:35;;;;;;;177.27;26.37;;;10.80;99.40;;;;;;5036586;28;20512;-65
2023/01/03 00:09:05;;;;;;;148.13;25.17;;;10.80;99.50;;;;;;5035323;28;20215;-65
2023/01/03 00:14:22;;;;;;;90.80;24.20;;;10.70;99.40;;;;;;5039352;28;20238;-65
2023/01/03 00:16:51;;;;;;;113.43;24.47;;;10.80;99.40;;;;;;5039195;28;20199;-65
2023/01/03 00:19:19;;;;;;;83.43;24.50;;;10.80;99.40;;;;;;5035405;28;20211;-66
2023/01/03 00:21:47;;;;;;;77.83;25.30;;;10.80;99.40;;;;;;5037169;28;20214;-65
2023/01/03 00:24:15;;;;;;;180.77;27.77;;;10.80;99.40;;;;;;5040494;28;20260;-65
2023/01/03 00:26:42;;;;;;;108.10;26.50;;;10.70;99.30;;;;;;5034845;28;20192;-65
2023/01/03 00:29:10;;;;;;;135.17;25.60;;;10.70;99.30;;;;;;5037317;28;20199;-65
2023/01/03 00:31:39;;;;;;;300.00;28.03;;;10.70;99.40;;;;;;5037334;28;20600;-65
2023/01/03 00:34:06;;;;;;;86.53;24.90;;;10.70;99.40;;;;;;5036765;28;20206;-66
2023/01/03 00:36:35;;;;;;;76.27;25.87;;;10.70;99.30;;;;;;5030825;28;20584;-65
2023/01/03 00:39:04;;;;;;;108.73;24.63;;;10.70;99.30;;;;;;5033595;28;20198;-65
2023/01/03 00:41:31;;;;;;;87.93;25.00;;;10.70;99.50;;;;;;5036371;28;20220;-65
2023/01/03 00:43:58;;;;;;;67.20;23.37;;;10.70;99.30;;;;;;5038567;28;20551;-65
2023/01/03 00:46:25;;;;;;;85.60;26.67;;;10.70;99.30;;;;;;5034207;28;20199;-65
2023/01/03 00:48:53;;;;;;;87.90;22.03;;;10.70;99.30;;;;;;5038232;28;20205;-66
2023/01/03 00:51:23;;;;;;;69.13;21.97;;;10.70;99.40;;;;;;5035522;28;20659;-65
2023/01/03 00:53:54;;;;;;;64.90;22.73;;;10.70;99.40;;;;;;5035013;28;20199;-66
2023/01/03 00:56:24;;;;;;;63.33;23.03;;;10.70;99.40;;;;;;5030828;28;20214;-66
2023/01/03 00:58:52;;;;;;;67.47;23.87;;;10.70;99.50;;;;;;5035371;28;20210;-65
2023/01/03 01:01:22;;;;;;;63.50;23.07;;;10.70;99.40;;;;;;5034996;28;20220;-65
2023/01/03 01:03:54;;;;;;;62.23;22.93;;;10.70;99.70;;;;;;5037512;28;20214;-65
2023/01/03 01:06:24;;;;;;;75.83;23.37;;;10.70;99.50;;;;;;5033822;28;20229;-65
2023/01/03 01:08:54;;;;;;;72.50;22.33;;;10.70;99.50;;;;;;5036361;28;20207;-65
2023/01/03 01:11:23;;;;;;;58.20;23.80;;;10.70;99.50;;;;;;5039915;28;20264;-65
2023/01/03 01:13:51;;;;;;;59.30;21.77;;;10.70;99.50;;;;;;5041136;28;20237;-65
2023/01/03 01:16:24;;;;;;;61.73;22.43;;;10.70;99.50;;;;;;5036843;28;20211;-65
2023/01/03 01:18:53;;;;;;;60.87;21.50;;;10.70;99.50;;;;;;5033262;28;20213;-66
2023/01/03 01:21:28;;;;;;;68.90;22.47;;;10.70;99.50;;;;;;5033813;28;20579;-65
2023/01/03 01:23:58;;;;;;;53.13;21.67;;;10.70;99.50;;;;;;5036252;28;20201;-65
2023/01/03 01:26:25;;;;;;;67.00;22.57;;;10.70;99.50;;;;;;5034181;28;20198;-65
2023/01/03 01:28:53;;;;;;;51.63;21.03;;;10.70;99.40;;;;;;5033719;28;20209;-65
2023/01/03 01:31:23;;;;;;;45.80;19.63;;;10.70;99.40;;;;;;5041073;28;20209;-65
2023/01/03 01:33:52;;;;;;;52.73;20.90;;;10.70;99.40;;;;;;5041336;28;20678;-65
2023/01/03 01:36:30;;;;;;;46.33;20.20;;;10.70;99.40;;;;;;5035031;28;20220;-65
2023/01/03 01:39:08;;;;;;;48.77;19.13;;;10.70;99.50;;;;;;5034993;28;20214;-65
2023/01/03 01:44:53;;;;;;;47.57;19.03;;;10.70;99.40;;;;;;5032476;28;20290;-65
2023/01/03 01:47:35;;;;;;;57.97;22.33;;;10.70;99.50;;;;;;5044407;28;20213;-65
2023/01/03 01:50:14;;;;;;;62.03;21.60;;;10.70;99.50;;;;;;5029543;28;20199;-65
2023/01/03 01:53:14;;;;;;;66.30;25.03;;;10.70;99.40;;;;;;5033002;28;20206;-65
2023/01/03 01:55:57;;;;;;;61.70;22.73;;;10.70;99.30;;;;;;5038060;28;20198;-65
2023/01/03 01:58:27;;;;;;;66.00;23.23;;;10.70;99.30;;;;;;5036648;28;20210;-65
2023/01/03 02:00:55;;;;;;;98.50;23.63;;;10.80;99.30;;;;;;5035601;28;20578;-65
2023/01/03 02:03:22;;;;;;;65.83;23.77;;;10.70;99.30;;;;;;5040269;28;20512;-65
2023/01/03 02:05:52;;;;;;;65.87;23.00;;;10.70;99.30;;;;;;5033428;28;20285;-66
2023/01/03 02:08:20;;;;;;;59.40;23.13;;;10.70;99.30;;;;;;5033580;28;20199;-65
2023/01/03 02:11:11;;;;;;;65.50;23.80;;;10.70;99.40;;;;;;5034459;28;20210;-65
2023/01/03 02:14:03;;;;;;;64.47;24.53;;;10.70;99.50;;;;;;5036555;28;20246;-65
2023/01/03 02:16:36;;;;;;;68.33;23.67;;;10.70;99.50;;;;;;5035674;28;20206;-65
2023/01/03 02:19:06;;;;;;;63.43;24.70;;;10.70;99.50;;;;;;5033134;28;20634;-65
2023/01/03 02:22:08;;;;;;;68.20;23.87;;;10.70;99.50;;;;;;5034779;28;20317;-65
2023/01/03 02:24:48;;;;;;;41.80;18.27;;;10.70;99.50;;;;;;5035193;28;20214;-65
2023/01/03 02:27:26;;;;;;;41.20;19.30;;;10.70;99.50;;;;;;5034226;28;20199;-65
2023/01/03 02:30:33;;;;;;;47.30;21.67;;;10.70;99.40;;;;;;5036796;28;20204;-65
2023/01/03 02:33:03;;;;;;;49.40;19.83;;;10.70;99.50;;;;;;5029593;28;20447;-65
2023/01/03 02:35:35;;;;;;;47.00;20.00;;;10.60;99.40;;;;;;5026496;28;20281;-65
2023/01/03 02:38:25;;;;;;;50.00;20.53;;;10.70;99.40;;;;;;5035694;28;20207;-65
2023/01/03 02:41:36;;;;;;;42.43;18.20;;;10.70;99.50;;;;;;5024613;28;20249;-65
2023/01/03 02:44:35;;;;;;;36.63;17.57;;;10.70;99.40;;;;;;5036635;28;20228;-65
2023/01/03 02:47:12;;;;;;;35.70;19.07;;;10.70;99.30;;;;;;5032889;28;20627;-65
2023/01/03 02:49:50;;;;;;;45.53;19.57;;;10.60;99.20;;;;;;5035093;28;20197;-65
2023/01/03 02:52:21;;;;;;;38.27;17.67;;;10.60;99.30;;;;;;5032789;28;20214;-65
2023/01/03 02:55:20;;;;;;;36.53;17.80;;;10.60;99.30;;;;;;5035269;28;20206;-65
2023/01/03 02:58:01;;;;;;;36.47;16.50;;;10.60;99.30;;;;;;5036492;28;20209;-65
2023/01/03 03:00:31;;;;;;;37.63;18.37;;;10.60;99.30;;;;;;5036492;28;20691;-65
2023/01/03 03:03:08;;;;;;;40.33;19.67;;;10.60;99.30;;;;;;5038105;28;20206;-65
2023/01/03 03:06:05;;;;;;;39.37;18.67;;;10.60;99.30;;;;;;5033214;28;20647;-65
2023/01/03 03:08:32;;;;;;;43.53;19.90;;;10.60;99.40;;;;;;5044743;28;20620;-65
2023/01/03 03:13:50;;;;;;;33.90;17.37;;;10.60;99.30;;;;;;5037991;28;20237;-65
2023/01/03 03:25:58;;;;;;;35.67;15.67;;;10.50;99.30;;;;;;5040616;28;20198;-65
2023/01/03 03:28:36;;;;;;;34.77;16.50;;;10.50;99.20;;;;;;5039257;28;20219;-65
2023/01/03 03:31:35;;;;;;;35.60;16.77;;;10.50;99.20;;;;;;5039307;28;20287;-65
2023/01/03 03:34:07;;;;;;;33.27;17.27;;;10.40;99.20;;;;;;5039005;28;20213;-65
2023/01/03 03:36:45;;;;;;;37.17;16.73;;;10.40;99.10;;;;;;5037198;28;20206;-65
2023/01/03 03:45:32;;;;;;;33.00;16.80;;;10.40;99.20;;;;;;5043248;28;20194;-65
2023/01/03 03:48:12;;;;;;;35.13;16.70;;;10.40;99.20;;;;;;5033533;28;20211;-65
2023/01/03 03:50:42;;;;;;;37.67;18.23;;;10.40;99.20;;;;;;5038214;28;20206;-65
2023/01/03 03:53:11;;;;;;;49.70;18.07;;;10.40;99.30;;;;;;5040960;28;20541;-65
2023/01/03 03:55:47;;;;;;;46.70;21.43;;;10.30;99.20;;;;;;5036527;28;20260;-66
2023/01/03 03:58:22;;;;;;;50.43;19.77;;;10.30;99.30;;;;;;5037666;28;20279;-65
2023/01/03 04:00:51;;;;;;;44.03;20.07;;;10.30;99.40;;;;;;5038642;28;20221;-65
2023/01/03 04:03:20;;;;;;;71.33;22.00;;;10.30;99.40;;;;;;5037556;28;20208;-65
2023/01/03 04:05:56;;;;;;;53.13;22.20;;;10.30;99.40;;;;;;5034252;28;20206;-65
2023/01/03 04:08:23;;;;;;;51.33;20.03;;;10.30;99.50;;;;;;5033109;28;20193;-65
2023/01/03 04:10:50;;;;;;;53.73;22.70;;;10.30;99.50;;;;;;5039180;28;20205;-65
2023/01/03 04:13:17;;;;;;;64.10;21.00;;;10.30;99.60;;;;;;5037420;28;20672;-65
2023/01/03 04:15:44;;;;;;;59.23;20.93;;;10.30;99.50;;;;;;5038532;28;20636;-65
2023/01/03 04:18:12;;;;;;;88.03;20.47;;;10.30;99.50;;;;;;5035267;28;20218;-66
2023/01/03 04:20:39;;;;;;;54.87;18.67;;;10.40;99.50;;;;;;5035819;28;20232;-65
2023/01/03 04:23:06;;;;;;;49.57;19.53;;;10.30;99.50;;;;;;5037138;28;20205;-65
2023/01/03 04:25:33;;;;;;;81.47;18.90;;;10.40;99.50;;;;;;5048410;28;20244;-65
2023/01/03 04:28:00;;;;;;;119.00;20.50;;;10.30;99.50;;;;;;5037474;28;20830;-65
2023/01/03 04:30:27;;;;;;;88.23;19.50;;;10.30;99.50;;;;;;5034692;28;20658;-65
2023/01/03 04:32:55;;;;;;;89.57;20.77;;;10.30;99.40;;;;;;5032363;28;20209;-65
2023/01/03 04:35:22;;;;;;;68.73;18.90;;;10.30;99.40;;;;;;5033479;28;20206;-65
2023/01/03 04:37:49;;;;;;;98.57;18.53;;;10.30;99.50;;;;;;5033130;28;20213;-65
2023/01/03 04:40:16;;;;;;;90.00;21.17;;;10.30;99.50;;;;;;5036924;28;20206;-65
2023/01/03 04:45:28;;;;;;;52.83;20.17;;;10.20;99.60;;;;;;5035851;28;20694;-65
2023/01/03 04:47:55;;;;;;;50.07;18.93;;;10.20;99.70;;;;;;5031848;28;20504;-65
2023/01/03 04:50:22;;;;;;;54.93;18.23;;;10.30;99.70;;;;;;5031295;28;20621;-65
2023/01/03 04:52:49;;;;;;;115.23;20.70;;;10.30;99.80;;;;;;5037998;28;20198;-66
2023/01/03 04:55:16;;;;;;;55.40;19.43;;;10.30;99.70;;;;;;5040047;28;20198;-65
2023/01/03 04:57:43;;;;;;;45.47;18.27;;;10.30;99.70;;;;;;5035488;28;20194;-65
2023/01/03 05:00:11;;;;;;;77.37;20.47;;;10.30;99.70;;;;;;5038746;28;20218;-65
2023/01/03 05:02:39;;;;;;;97.00;20.73;;;10.30;99.60;;;;;;5035291;28;20215;-65
2023/01/03 05:05:06;;;;;;;89.03;20.13;;;10.30;99.60;;;;;;5035732;28;20547;-65
2023/01/03 05:07:33;;;;;;;51.53;19.80;;;10.30;99.50;;;;;;5038422;28;20205;-65
2023/01/03 05:10:01;;;;;;;49.73;19.30;;;10.30;99.60;;;;;;5039115;28;20211;-65
2023/01/03 05:12:28;;;;;;;97.00;20.13;;;10.30;99.60;;;;;;5040765;28;20203;-66
2023/01/03 05:14:55;;;;;;;56.23;19.67;;;10.30;99.60;;;;;;5039352;28;20238;-66
2023/01/03 05:17:22;;;;;;;69.83;19.83;;;10.30;99.60;;;;;;5036650;28;20618;-65
2023/01/03 05:25:50;;;;;;;63.43;19.63;;;10.30;99.70;;;;;;5037899;28;20203;-65
2023/01/03 05:28:19;;;;;;;43.07;18.07;;;10.20;99.90;;;;;;5034789;28;20237;-65
2023/01/03 05:30:46;;;;;;;57.30;18.97;;;10.30;99.70;;;;;;5035704;28;20205;-65
2023/01/03 05:33:13;;;;;;;47.60;19.43;;;10.30;99.70;;;;;;5038429;28;20264;-65
2023/01/03 05:35:43;;;;;;;57.07;17.63;;;10.30;99.70;;;;;;5036365;28;20206;-65
2023/01/03 05:38:10;;;;;;;56.67;19.47;;;10.30;99.70;;;;;;5032084;28;20197;-65
2023/01/03 05:40:37;;;;;;;53.27;17.77;;;10.30;99.70;;;;;;5038092;28;20580;-65
2023/01/03 05:43:07;;;;;;;59.47;19.17;;;10.30;99.70;;;;;;5039835;28;20528;-65
2023/01/03 05:45:35;;;;;;;55.30;17.83;;;10.30;99.70;;;;;;5036679;28;20205;-65
2023/01/03 05:48:03;;;;;;;45.73;17.43;;;10.30;99.60;;;;;;5036679;28;20197;-65
2023/01/03 05:50:31;;;;;;;54.27;18.43;;;10.20;99.60;;;;;;5036580;28;20576;-65
2023/01/03 05:52:58;;;;;;;43.60;18.00;;;10.30;99.60;;;;;;5037862;28;20210;-65
2023/01/03 05:55:25;;;;;;;43.33;17.70;;;10.20;99.50;;;;;;5042137;28;20633;-65
2023/01/03 05:57:52;;;;;;;42.47;17.07;;;10.20;99.60;;;;;;5037619;28;20246;-65
2023/01/03 06:00:19;;;;;;;43.97;17.00;;;10.20;99.60;;;;;;5043516;28;20212;-65
2023/01/03 06:02:47;;;;;;;42.00;18.20;;;10.20;99.60;;;;;;5035033;28;20304;-65
2023/01/03 06:05:14;;;;;;;45.10;16.93;;;10.10;99.60;;;;;;5035846;28;20205;-65
2023/01/03 06:07:41;;;;;;;58.20;18.43;;;10.10;99.60;;;;;;5034650;28;20210;-65
2023/01/03 06:10:08;;;;;;;52.47;16.97;;;10.10;99.70;;;;;;5036415;28;20233;-65
2023/01/03 06:12:36;;;;;;;54.47;18.53;;;10.10;99.70;;;;;;5042266;28;20198;-65
2023/01/03 06:15:03;;;;;;;50.77;18.37;;;10.10;99.70;;;;;;5037035;28;20698;-66
2023/01/03 06:20:16;;;;;;;48.13;17.23;;;10.10;99.80;;;;;;5032183;28;20213;-65
2023/01/03 06:22:43;;;;;;;52.60;16.27;;;10.10;99.70;;;;;;5037313;28;20215;-65
2023/01/03 06:25:11;;;;;;;53.60;18.37;;;10.10;99.70;;;;;;5036813;28;20188;-65
2023/01/03 06:27:38;;;;;;;56.33;18.97;;;10.10;99.70;;;;;;5036503;28;20203;-65
2023/01/03 06:30:06;;;;;;;46.17;16.83;;;10.10;99.70;;;;;;5034096;28;20255;-65
2023/01/03 06:32:33;;;;;;;48.27;16.33;;;10.10;99.70;;;;;;5036196;28;20209;-65
2023/01/03 06:34:59;;;;;;;50.37;17.20;;;10.10;99.70;;;;;;5030896;28;20217;-65
2023/01/03 06:37:26;;;;;;;54.67;17.30;;;10.10;99.70;;;;;;5036529;28;20205;-65
2023/01/03 06:39:53;;;;;;;53.20;17.97;;;10.10;99.80;;;;;;5032220;28;20278;-65
2023/01/03 06:42:38;;;;;;;50.37;17.47;;;10.10;99.80;;;;;;5034657;28;20667;-65
2023/01/03 06:53:27;;;;;;;32.80;13.80;;;10.10;99.70;;;;;;5038107;28;20512;-65
2023/01/03 06:55:54;;;;;;;38.87;14.13;;;10.10;99.70;;;;;;5037809;28;20551;-65
2023/01/03 06:58:23;;;;;;;33.37;14.47;;;10.10;99.70;;;;;;5038704;28;20283;-65
2023/01/03 07:00:51;;;;;;;34.93;15.07;;;10.10;99.70;;;;;;5041448;28;20206;-65
2023/01/03 07:03:18;;;;;;;41.93;15.80;;;10.10;99.70;;;;;;5035656;28;20274;-65
2023/01/03 07:05:45;;;;;;;176.30;19.70;;;10.20;99.80;;;;;;5037521;28;20752;-65
2023/01/03 07:08:12;;;;;;;80.73;15.37;;;10.20;99.80;;;;;;5038488;28;20582;-65
2023/01/03 07:10:40;;;;;;;63.90;15.33;;;10.20;99.60;;;;;;5035640;28;20217;-66
2023/01/03 07:15:52;;;;;;;97.03;17.60;;;10.10;99.30;;;;;;5038353;28;20227;-65
2023/01/03 07:18:20;;;;;;;41.17;15.07;;;10.00;99.40;;;;;;5037852;28;20201;-65
2023/01/03 07:20:47;;;;;;;41.37;14.57;;;10.00;99.50;;;;;;5037078;28;20225;-65
2023/01/03 07:23:14;;;;;;;42.90;14.90;;;10.00;99.60;;;;;;5037927;28;20321;-65
2023/01/03 07:25:41;;;;;;;34.87;16.43;;;10.00;99.70;;;;;;5036361;28;20197;-65
2023/01/03 07:28:13;;;;;;;42.17;16.23;;;10.00;99.90;;;;;;5039412;28;20205;-65
2023/01/03 07:30:42;;;;;;;31.10;14.90;;;10.00;99.70;;;;;;5040353;28;20230;-65
2023/01/03 07:33:12;;;;;;;37.83;15.23;;;10.00;99.70;;;;;;5036731;28;20204;-65
2023/01/03 07:35:39;;;;;;;40.20;15.77;;;10.10;99.80;;;;;;5035852;28;20574;-65
2023/01/03 07:38:06;;;;;;;28.40;13.30;;;10.10;99.80;;;;;;5037589;28;20632;-65
2023/01/03 07:40:33;;;;;;;30.00;13.47;;;10.10;99.80;;;;;;5039445;28;20193;-65
2023/01/03 07:45:46;;;;;;;29.87;14.83;;;10.10;99.60;;;;;;5041797;28;20594;-65
2023/01/03 07:48:14;;;;;;;25.40;13.13;;;10.10;99.50;;;;;;5033999;28;20215;-65
2023/01/03 07:50:41;;;;;;;35.60;13.63;;;10.10;99.50;;;;;;5038637;28;20210;-65
2023/01/03 07:53:15;;;;;;;26.00;13.80;;;10.10;99.50;;;;;;5036652;28;20210;-65
2023/01/03 07:55:45;;;;;;;35.70;15.27;;;10.10;99.50;;;;;;5040730;28;20268;-65
2023/01/03 07:58:12;;;;;;;28.23;13.57;;;10.00;99.50;;;;;;5038034;28;20686;-65
2023/01/03 08:00:40;;;;;;;27.77;12.63;;;10.00;99.60;;;;;;5038324;28;20202;-65
2023/01/03 08:03:08;;;;;;;34.10;13.77;;;10.10;99.60;;;;;;5038739;28;20688;-65
2023/01/03 08:05:37;;;;;;;30.53;13.73;;;10.10;99.70;;;;;;5036413;28;20649;-65
2023/01/03 08:08:05;;;;;;;33.60;13.43;;;10.10;99.80;;;;;;5034062;28;20250;-65
2023/01/03 08:13:37;;;;;;;34.60;13.23;;;10.10;99.70;;;;;;5036110;28;20244;-65
2023/01/03 08:16:07;;;;;;;33.80;13.30;;;10.10;99.70;;;;;;5036626;28;20207;-65
2023/01/03 08:18:34;;;;;;;40.07;13.93;;;10.10;99.70;;;;;;5035252;28;20212;-65
2023/01/03 08:21:01;;;;;;;38.37;14.57;;;10.20;99.60;;;;;;5035118;28;20202;-65
2023/01/03 08:23:28;;;;;;;35.87;14.10;;;10.10;99.60;;;;;;5037053;28;20540;-65
2023/01/03 08:26:15;;;;;;;50.40;15.03;;;10.20;99.60;;;;;;5039123;28;20202;-65
2023/01/03 08:28:44;;;;;;;35.27;14.13;;;10.20;99.60;;;;;;5036185;28;20202;-65
2023/01/03 08:31:16;;;;;;;30.00;13.30;;;10.20;99.70;;;;;;5040272;28;20648;-65
2023/01/03 08:33:53;;;;;;;28.13;14.00;;;10.20;99.60;;;;;;5036892;28;20202;-65
2023/01/03 08:36:24;;;;;;;27.50;12.53;;;10.20;99.70;;;;;;5038275;28;20513;-65
2023/01/03 08:38:53;;;;;;;28.20;13.60;;;10.30;99.70;;;;;;5032262;28;20231;-65
2023/01/03 08:41:25;;;;;;;27.27;13.10;;;10.30;99.70;;;;;;5041998;28;20554;-65
2023/01/03 08:43:53;;;;;;;53.53;14.03;;;10.40;99.70;;;;;;5023023;28;20240;-65
2023/01/03 08:46:20;;;;;;;24.83;12.53;;;10.40;99.70;;;;;;5035704;28;20540;-65
2023/01/03 08:48:48;;;;;;;22.93;12.63;;;10.40;99.60;;;;;;5037565;28;20247;-65
2023/01/03 08:51:15;;;;;;;27.17;13.17;;;10.50;99.60;;;;;;5036346;28;20225;-65
2023/01/03 08:53:42;;;;;;;23.40;12.07;;;10.50;99.60;;;;;;5034982;28;20209;-65
2023/01/03 08:56:09;;;;;;;29.97;13.13;;;10.50;99.50;;;;;;5038285;28;20547;-65
2023/01/03 08:58:36;;;;;;;25.37;13.40;;;10.50;99.50;;;;;;5035006;28;20202;-65
2023/01/03 09:01:04;;;;;;;29.23;13.17;;;10.50;99.40;;;;;;5038426;28;20206;-64
2023/01/03 09:03:32;;;;;;;25.67;13.10;;;10.50;99.30;;;;;;5036010;28;20216;-65
2023/01/03 09:06:00;;;;;;;25.23;13.60;;;10.50;99.30;;;;;;5032935;28;20203;-65
2023/01/03 09:08:32;;;;;;;28.13;13.03;;;10.50;99.40;;;;;;5034037;28;20641;-65
2023/01/03 09:11:04;;;;;;;28.47;13.17;;;10.50;99.40;;;;;;5039833;28;20209;-65
2023/01/03 09:13:31;;;;;;;22.37;13.53;;;10.60;99.40;;;;;;5039667;28;20205;-65
2023/01/03 09:16:02;;;;;;;22.80;11.60;;;10.60;99.30;;;;;;5038130;28;20209;-65
2023/01/03 09:18:29;;;;;;;26.07;12.97;;;10.60;99.30;;;;;;5032183;28;20525;-64
2023/01/03 09:20:56;;;;;;;25.10;12.57;;;10.60;99.30;;;;;;5035789;28;20548;-65
2023/01/03 09:23:23;;;;;;;27.50;12.57;;;10.70;99.40;;;;;;5037706;28;20580;-64
2023/01/03 09:25:50;;;;;;;28.43;12.43;;;10.70;99.30;;;;;;5037768;28;20212;-64
2023/01/03 09:28:17;;;;;;;25.23;13.97;;;10.70;99.20;;;;;;5033925;28;20282;-65
2023/01/03 09:30:44;;;;;;;30.37;13.60;;;10.70;99.20;;;;;;5037970;28;20215;-65
2023/01/03 09:33:11;;;;;;;23.47;11.93;;;10.80;99.30;;;;;;5032007;28;20313;-65
2023/01/03 09:35:38;;;;;;;22.87;12.47;;;10.80;99.20;;;;;;5035328;28;20280;-64
2023/01/03 09:38:06;;;;;;;24.00;12.37;;;10.90;99.20;;;;;;5032408;28;20613;-64
2023/01/03 09:40:38;;;;;;;28.37;12.80;;;10.90;99.10;;;;;;5039135;28;20269;-64
2023/01/03 09:43:13;;;;;;;24.00;11.23;;;11.00;99.00;;;;;;5037154;28;20206;-65
2023/01/03 09:45:57;;;;;;;19.37;11.40;;;10.90;99.00;;;;;;5035945;28;20344;-64
2023/01/03 09:48:36;;;;;;;25.27;11.50;;;10.90;99.00;;;;;;5024547;28;20220;-65
2023/01/03 10:03:42;;;;;;;24.53;11.97;;;11.00;99.00;;;;;;5033979;28;20202;-65
2023/01/03 10:05:30;;;;;;;19.70;11.30;;;11.00;98.80;;;;;;5033820;28;20252;-65
2023/01/03 10:08:18;;;;;;;20.27;11.43;;;11.10;98.80;;;;;;5035884;28;20201;-64
2023/01/03 10:11:22;;;;;;;20.67;10.67;;;11.10;98.80;;;;;;5038616;28;20263;-64
2023/01/03 10:14:07;;;;;;;22.97;11.10;;;11.10;98.80;;;;;;5035498;28;20249;-65
2023/01/03 10:16:40;;;;;;;21.40;10.77;;;11.20;98.80;;;;;;5032892;28;20650;-64
2023/01/03 10:19:26;;;;;;;17.33;11.07;;;11.20;98.70;;;;;;5034788;28;20305;-64
2023/01/03 10:22:02;;;;;;;19.30;9.70;;;11.30;98.70;;;;;;5034394;28;20201;-65
2023/01/03 10:24:31;;;;;;;19.73;10.60;;;11.30;98.60;;;;;;5041012;28;20288;-65
2023/01/03 10:27:16;;;;;;;19.27;10.40;;;11.30;98.40;;;;;;5036830;28;20198;-65
2023/01/03 10:29:45;;;;;;;20.40;10.70;;;11.30;98.40;;;;;;5031795;28;20202;-64
2023/01/03 10:32:27;;;;;;;21.63;11.03;;;11.30;98.40;;;;;;5033075;28;20528;-64
2023/01/03 10:35:14;;;;;;;21.33;10.50;;;11.40;98.40;;;;;;5033562;28;20206;-64
2023/01/03 10:37:41;;;;;;;19.43;10.00;;;11.40;98.40;;;;;;5028964;28;20234;-65
2023/01/03 10:40:09;;;;;;;18.63;10.23;;;11.40;98.30;;;;;;5034346;28;20210;-64
2023/01/03 10:42:38;;;;;;;17.90;10.70;;;11.40;98.20;;;;;;5034931;28;20317;-65
2023/01/03 10:45:17;;;;;;;19.23;10.47;;;11.40;98.10;;;;;;5038357;28;20218;-64
2023/01/03 10:47:58;;;;;;;18.70;10.57;;;11.40;98.00;;;;;;5029810;28;20205;-66
2023/01/03 10:50:26;;;;;;;18.77;9.90;;;11.40;98.00;;;;;;5032974;28;20203;-64
2023/01/03 10:53:15;;;;;;;15.77;10.33;;;11.40;98.00;;;;;;5035059;28;20217;-64
2023/01/03 10:55:48;;;;;;;17.23;9.93;;;11.40;97.80;;;;;;5034198;28;20287;-64
2023/01/03 10:58:27;;;;;;;18.23;10.90;;;11.30;97.60;;;;;;5034173;28;20289;-64
2023/01/03 11:01:17;;;;;;;17.13;10.33;;;11.20;97.60;;;;;;5029858;28;20279;-64
2023/01/03 11:04:04;;;;;;;17.80;10.67;;;11.20;97.80;;;;;;5031996;28;20226;-65
2023/01/03 11:06:32;;;;;;;18.80;10.00;;;11.20;97.90;;;;;;5036570;28;20194;-65
2023/01/03 11:09:03;;;;;;;20.20;10.87;;;11.20;97.90;;;;;;5033212;28;20202;-65
2023/01/03 11:11:39;;;;;;;18.90;10.53;;;11.20;97.80;;;;;;5039475;28;20212;-65
2023/01/03 11:14:09;;;;;;;18.70;10.33;;;11.20;97.70;;;;;;5033910;28;20251;-65
2023/01/03 11:16:36;;;;;;;18.00;10.90;;;11.20;97.90;;;;;;5033208;28;20268;-65
2023/01/03 11:19:05;;;;;;;19.97;10.73;;;11.20;98.00;;;;;;5035013;28;20224;-65
2023/01/03 11:21:46;;;;;;;17.30;9.73;;;11.20;98.00;;;;;;5035324;28;20210;-65
2023/01/03 11:24:27;;;;;;;18.50;11.33;;;11.30;97.90;;;;;;5039043;28;20271;-65
2023/01/03 11:27:15;;;;;;;16.17;10.43;;;11.30;97.90;;;;;;5035481;28;20194;-65
2023/01/03 11:30:02;;;;;;;21.17;10.37;;;11.40;97.80;;;;;;5035501;28;20210;-65
2023/01/03 11:32:53;;;;;;;20.17;11.97;;;11.40;97.70;;;;;;5043234;28;20220;-65
2023/01/03 11:35:38;;;;;;;20.67;11.47;;;11.40;97.60;;;;;;5026074;28;20212;-64
2023/01/03 11:38:24;;;;;;;17.30;10.83;;;11.40;97.60;;;;;;5032321;28;20220;-65
2023/01/03 11:41:08;;;;;;;19.80;12.27;;;11.40;97.50;;;;;;5036434;28;20206;-65
2023/01/03 11:44:21;;;;;;;19.03;10.83;;;11.40;97.60;;;;;;5037283;28;20221;-65
2023/01/03 11:47:25;;;;;;;23.60;11.90;;;11.40;97.60;;;;;;5031812;28;20683;-65
2023/01/03 11:50:13;;;;;;;20.50;11.57;;;11.40;97.40;;;;;;5035006;28;20216;-65
2023/01/03 11:53:04;;;;;;;18.83;11.30;;;11.40;97.50;;;;;;5038734;28;20244;-65
2023/01/03 11:55:57;;;;;;;20.17;11.90;;;11.40;97.60;;;;;;5039297;28;20577;-65
2023/01/03 11:58:42;;;;;;;22.83;12.13;;;11.40;97.70;;;;;;5033613;28;20547;-65
2023/01/03 12:01:35;;;;;;;20.73;11.77;;;11.40;97.70;;;;;;5036048;28;20206;-65
2023/01/03 12:04:27;;;;;;;18.03;11.53;;;11.50;97.70;;;;;;5037257;28;20644;-65
2023/01/03 12:07:41;;;;;;;20.37;11.87;;;11.50;97.60;;;;;;5036031;28;20230;-65
2023/01/03 12:10:59;;;;;;;23.57;13.00;;;11.50;97.40;;;;;;5023864;28;20211;-65
2023/01/03 12:13:26;;;;;;;24.07;12.50;;;11.50;97.40;;;;;;5008807;28;20639;-65
2023/01/03 12:16:18;;;;;;;24.80;13.20;;;11.50;97.30;;;;;;5032465;28;20538;-65
2023/01/03 12:18:57;;;;;;;25.47;13.67;;;11.50;97.40;;;;;;5031367;28;20293;-65
2023/01/03 12:21:42;;;;;;;28.57;14.57;;;11.50;97.50;;;;;;5037189;28;20214;-65
2023/01/03 12:24:27;;;;;;;31.37;15.10;;;11.60;97.50;;;;;;5038534;28;20231;-65
2023/01/03 12:27:28;;;;;;;28.10;14.90;;;11.50;97.30;;;;;;5041961;28;20213;-65
2023/01/03 12:30:05;;;;;;;25.87;14.67;;;11.50;97.10;;;;;;5031812;28;20538;-65
2023/01/03 12:33:13;;;;;;;30.93;16.00;;;11.50;97.20;;;;;;5035787;28;20202;-65
2023/01/03 12:36:22;;;;;;;27.33;14.53;;;11.50;97.20;;;;;;5038283;28;20232;-65
2023/01/03 12:39:01;;;;;;;26.77;15.10;;;11.50;97.40;;;;;;5031658;28;20211;-65
2023/01/03 12:41:41;;;;;;;21.97;13.23;;;11.50;97.50;;;;;;5036526;28;20205;-65
2023/01/03 12:44:14;;;;;;;28.00;15.60;;;11.50;97.60;;;;;;5038236;28;20300;-65
2023/01/03 12:46:49;;;;;;;23.67;14.50;;;11.50;97.50;;;;;;5033511;28;20226;-65
2023/01/03 12:49:30;;;;;;;24.57;14.07;;;11.50;97.30;;;;;;5034217;28;20193;-65
2023/01/03 12:51:58;;;;;;;24.80;15.30;;;11.50;97.30;;;;;;5036957;28;20207;-65
2023/01/03 12:54:52;;;;;;;27.10;15.37;;;11.50;97.30;;;;;;5040372;28;20539;-65
2023/01/03 12:57:37;;;;;;;29.73;16.30;;;11.50;97.40;;;;;;5038182;28;20201;-65
2023/01/03 13:00:19;;;;;;;26.47;14.40;;;11.50;97.40;;;;;;5036734;28;20196;-65
2023/01/03 13:02:56;;;;;;;29.57;15.70;;;11.50;97.30;;;;;;5035348;28;20257;-65
2023/01/03 13:05:30;;;;;;;23.40;14.53;;;11.50;97.30;;;;;;5036947;28;20210;-65
2023/01/03 13:08:08;;;;;;;31.83;16.17;;;11.50;97.30;;;;;;5036321;28;20204;-65
2023/01/03 13:10:39;;;;;;;31.37;16.33;;;11.40;97.40;;;;;;5038427;28;20217;-65
2023/01/03 13:13:09;;;;;;;35.93;16.97;;;11.40;97.50;;;;;;5041571;28;20208;-65
2023/01/03 13:15:36;;;;;;;33.23;16.50;;;11.40;97.60;;;;;;5031951;28;20234;-65
2023/01/03 13:18:17;;;;;;;31.53;16.53;;;11.30;97.70;;;;;;5035987;28;20635;-65
2023/01/03 13:20:46;;;;;;;35.90;17.80;;;11.40;97.80;;;;;;5033968;28;20259;-65
2023/01/03 13:23:40;;;;;;;36.07;18.33;;;11.40;97.90;;;;;;5036319;28;20320;-65
2023/01/03 13:26:18;;;;;;;34.57;18.27;;;11.40;98.00;;;;;;5035445;28;20203;-65
2023/01/03 13:28:45;;;;;;;34.67;17.97;;;11.50;97.90;;;;;;5034186;28;20192;-65
2023/01/03 13:31:17;;;;;;;29.87;16.43;;;11.50;97.80;;;;;;5037501;28;20210;-65
2023/01/03 13:33:51;;;;;;;30.43;17.63;;;11.40;97.70;;;;;;5034589;28;20195;-65
2023/01/03 13:36:18;;;;;;;29.50;16.93;;;11.40;97.80;;;;;;5036913;28;20642;-65
2023/01/03 13:38:45;;;;;;;35.40;18.30;;;11.40;97.80;;;;;;5033434;28;20209;-65
2023/01/03 13:41:34;;;;;;;31.67;16.93;;;11.40;97.70;;;;;;5043315;28;20198;-64
2023/01/03 13:44:22;;;;;;;31.30;17.10;;;11.40;97.80;;;;;;5036254;28;20324;-65
2023/01/03 13:46:50;;;;;;;33.27;17.40;;;11.40;97.90;;;;;;5030878;28;20636;-65
2023/01/03 13:49:24;;;;;;;32.77;17.87;;;11.40;97.90;;;;;;5034739;28;20716;-65
2023/01/03 13:51:52;;;;;;;28.67;16.63;;;11.40;98.00;;;;;;5035962;28;20212;-65
2023/01/03 13:54:19;;;;;;;35.97;18.13;;;11.40;98.00;;;;;;5033535;28;20213;-65
2023/01/03 13:56:51;;;;;;;32.03;16.63;;;11.40;97.90;;;;;;5034711;28;20209;-65
2023/01/03 13:59:30;;;;;;;32.27;17.70;;;11.50;97.90;;;;;;5029191;28;20521;-65
2023/01/03 14:02:08;;;;;;;32.47;17.97;;;11.40;97.70;;;;;;5035549;28;20225;-65
2023/01/03 14:05:14;;;;;;;28.27;16.40;;;11.40;97.60;;;;;;5034623;28;20206;-65